createdAt,value
2017-10-18T00:00:01.481Z,11.24
2017-10-18T00:01:01.378Z,11.24
2017-10-18T00:02:01.481Z,11.24
2017-10-18T00:03:01.376Z,11.25
2017-10-18T00:04:01.472Z,11.24
2017-10-18T00:05:01.467Z,11.24
2017-10-18T00:06:01.523Z,11.24
2017-10-18T00:07:01.409Z,11.22
2017-10-18T00:08:01.524Z,11.20
2017-10-18T00:09:01.525Z,11.17
2017-10-18T00:10:01.433Z,11.14
2017-10-18T00:11:01.467Z,11.16
2017-10-18T00:12:01.399Z,11.14
2017-10-18T00:13:01.524Z,11.13
2017-10-18T00:14:01.465Z,11.11
2017-10-18T00:15:01.471Z,11.09
2017-10-18T00:16:01.540Z,11.07
2017-10-18T00:17:01.536Z,11.09
2017-10-18T00:18:01.468Z,11.09
2017-10-18T00:19:01.537Z,11.09
2017-10-18T00:20:01.474Z,11.09
2017-10-18T00:21:01.475Z,11.10
2017-10-18T00:22:01.552Z,11.11
2017-10-18T00:23:01.542Z,11.11
2017-10-18T00:24:01.475Z,11.13
2017-10-18T00:25:01.440Z,11.13
2017-10-18T00:26:01.439Z,11.14
2017-10-18T00:27:01.490Z,11.14
2017-10-18T00:28:01.401Z,11.14
2017-10-18T00:29:01.449Z,11.14
2017-10-18T00:30:01.491Z,11.16
2017-10-18T00:31:01.397Z,11.16
2017-10-18T00:32:01.445Z,11.14
2017-10-18T00:33:01.410Z,11.17
2017-10-18T00:34:01.503Z,11.17
2017-10-18T00:35:01.486Z,11.17
2017-10-18T00:36:01.480Z,11.18
2017-10-18T00:37:01.547Z,11.18
2017-10-18T00:38:01.549Z,11.18
2017-10-18T00:39:01.482Z,11.18
2017-10-18T00:40:01.485Z,11.17
2017-10-18T00:41:01.550Z,11.18
2017-10-18T00:42:01.562Z,11.18
2017-10-18T00:43:01.510Z,11.20
2017-10-18T00:44:01.558Z,11.20
2017-10-18T00:45:01.554Z,11.20
2017-10-18T00:46:01.486Z,11.18
2017-10-18T00:47:01.553Z,11.20
2017-10-18T00:48:01.597Z,11.18
2017-10-18T00:49:01.554Z,11.18
2017-10-18T00:50:01.488Z,11.18
2017-10-18T00:51:01.493Z,11.17
2017-10-18T00:52:01.558Z,11.17
2017-10-18T00:53:01.490Z,11.17
2017-10-18T00:54:01.563Z,11.18
2017-10-18T00:55:01.494Z,11.17
2017-10-18T00:56:01.493Z,11.17
2017-10-18T00:57:01.562Z,11.17
2017-10-18T00:58:01.494Z,11.16
2017-10-18T00:59:01.562Z,11.16
2017-10-18T01:00:01.497Z,11.14
2017-10-18T01:01:01.497Z,11.14
2017-10-18T01:02:01.567Z,11.13
2017-10-18T01:03:01.566Z,11.16
2017-10-18T01:04:01.568Z,11.14
2017-10-18T01:05:01.566Z,11.11
2017-10-18T01:06:01.502Z,11.13
2017-10-18T01:07:01.569Z,11.13
2017-10-18T01:08:01.507Z,11.14
2017-10-18T01:09:01.568Z,11.11
2017-10-18T01:10:01.500Z,11.13
2017-10-18T01:11:01.569Z,11.14
2017-10-18T01:12:01.500Z,11.13
2017-10-18T01:13:01.574Z,11.11
2017-10-18T01:14:01.505Z,11.11
2017-10-18T01:15:01.390Z,11.11
2017-10-18T01:16:01.474Z,11.10
2017-10-18T01:17:01.482Z,11.07
2017-10-18T01:18:01.477Z,11.09
2017-10-18T01:19:01.542Z,11.07
2017-10-18T01:20:01.477Z,11.07
2017-10-18T01:21:01.484Z,11.07
2017-10-18T01:22:01.393Z,11.06
2017-10-18T01:23:01.501Z,11.06
2017-10-18T01:24:01.456Z,11.05
2017-10-18T01:25:01.616Z,11.06
2017-10-18T01:26:01.515Z,11.06
2017-10-18T01:27:01.515Z,11.05
2017-10-18T01:28:01.462Z,11.03
2017-10-18T01:29:01.517Z,11.05
2017-10-18T01:30:01.582Z,11.05
2017-10-18T01:31:01.515Z,11.02
2017-10-18T01:32:01.583Z,11.02
2017-10-18T01:33:01.558Z,10.98
2017-10-18T01:34:01.521Z,10.98
2017-10-18T01:35:01.576Z,10.97
2017-10-18T01:36:01.543Z,10.95
2017-10-18T01:37:01.490Z,10.95
2017-10-18T01:38:01.487Z,10.94
2017-10-18T01:39:01.580Z,10.95
2017-10-18T01:40:01.582Z,10.94
2017-10-18T01:41:01.496Z,10.94
2017-10-18T01:42:01.578Z,10.95
2017-10-18T01:43:01.561Z,10.97
2017-10-18T01:44:01.574Z,10.97
2017-10-18T01:45:01.598Z,10.95
2017-10-18T01:46:01.590Z,10.95
2017-10-18T01:47:01.520Z,10.95
2017-10-18T01:48:01.525Z,10.95
2017-10-18T01:49:01.593Z,10.95
2017-10-18T01:50:01.529Z,10.94
2017-10-18T01:51:01.595Z,10.95
2017-10-18T01:52:01.548Z,10.93
2017-10-18T01:53:01.595Z,10.93
2017-10-18T01:54:01.594Z,10.93
2017-10-18T01:55:01.584Z,10.91
2017-10-18T01:56:01.591Z,10.91
2017-10-18T01:57:01.507Z,10.91
2017-10-18T01:58:01.462Z,10.90
2017-10-18T01:59:01.529Z,10.91
2017-10-18T02:00:01.539Z,10.91
2017-10-18T02:01:01.592Z,10.90
2017-10-18T02:02:01.507Z,10.90
2017-10-18T02:03:01.593Z,10.90
2017-10-18T02:04:01.472Z,10.91
2017-10-18T02:05:01.509Z,10.91
2017-10-18T02:06:01.590Z,10.91
2017-10-18T02:07:01.508Z,10.93
2017-10-18T02:08:01.596Z,10.93
2017-10-18T02:09:01.578Z,10.93
2017-10-18T02:10:01.487Z,10.93
2017-10-18T02:11:01.598Z,10.93
2017-10-18T02:12:01.493Z,10.94
2017-10-18T02:13:01.508Z,10.93
2017-10-18T02:14:01.506Z,10.93
2017-10-18T02:15:01.515Z,10.93
2017-10-18T02:16:01.598Z,10.93
2017-10-18T02:17:01.517Z,10.93
2017-10-18T02:18:01.509Z,10.93
2017-10-18T02:19:01.519Z,10.93
2017-10-18T02:20:01.597Z,10.94
2017-10-18T02:21:01.479Z,10.94
2017-10-18T02:22:01.602Z,10.95
2017-10-18T02:23:01.601Z,10.98
2017-10-18T02:24:01.517Z,10.97
2017-10-18T02:25:01.617Z,10.97
2017-10-18T02:26:01.548Z,10.95
2017-10-18T02:27:01.616Z,10.95
2017-10-18T02:28:01.625Z,10.94
2017-10-18T02:29:01.573Z,10.93
2017-10-18T02:30:01.553Z,10.93
2017-10-18T02:31:01.617Z,10.93
2017-10-18T02:32:01.552Z,10.91
2017-10-18T02:33:01.579Z,10.93
2017-10-18T02:34:01.619Z,10.93
2017-10-18T02:35:01.620Z,10.91
2017-10-18T02:36:01.620Z,10.93
2017-10-18T02:37:01.552Z,10.93
2017-10-18T02:38:01.623Z,10.94
2017-10-18T02:39:01.556Z,10.94
2017-10-18T02:40:01.625Z,10.94
2017-10-18T02:41:01.554Z,10.94
2017-10-18T02:42:01.625Z,10.97
2017-10-18T02:43:01.558Z,10.97
2017-10-18T02:44:01.559Z,10.95
2017-10-18T02:45:01.627Z,10.95
2017-10-18T02:46:01.518Z,10.95
2017-10-18T02:47:01.559Z,10.94
2017-10-18T02:48:01.495Z,10.93
2017-10-18T02:49:01.531Z,10.94
2017-10-18T02:50:01.496Z,10.94
2017-10-18T02:51:01.644Z,10.95
2017-10-18T02:52:01.528Z,10.94
2017-10-18T02:53:01.613Z,10.93
2017-10-18T02:54:01.612Z,10.93
2017-10-18T02:55:01.624Z,10.91
2017-10-18T02:56:01.701Z,10.90
2017-10-18T02:57:01.568Z,10.90
2017-10-18T02:58:01.636Z,10.87
2017-10-18T02:59:01.640Z,10.84
2017-10-18T03:00:01.635Z,10.84
2017-10-18T03:01:01.582Z,10.83
2017-10-18T03:02:01.637Z,10.80
2017-10-18T03:03:01.636Z,10.77
2017-10-18T03:04:01.632Z,10.77
2017-10-18T03:05:01.642Z,10.75
2017-10-18T03:06:01.633Z,10.74
2017-10-18T03:07:01.505Z,10.74
2017-10-18T03:08:01.635Z,10.72
2017-10-18T03:09:01.597Z,10.71
2017-10-18T03:10:01.634Z,10.72
2017-10-18T03:11:01.572Z,10.71
2017-10-18T03:12:01.578Z,10.71
2017-10-18T03:13:01.545Z,10.69
2017-10-18T03:14:01.592Z,10.68
2017-10-18T03:15:01.511Z,10.68
2017-10-18T03:16:01.547Z,10.67
2017-10-18T03:17:01.647Z,10.65
2017-10-18T03:18:01.568Z,10.65
2017-10-18T03:19:01.546Z,10.64
2017-10-18T03:20:01.584Z,10.61
2017-10-18T03:21:01.557Z,10.60
2017-10-18T03:22:01.635Z,10.58
2017-10-18T03:23:01.642Z,10.60
2017-10-18T03:24:01.641Z,10.61
2017-10-18T03:25:01.560Z,10.60
2017-10-18T03:26:01.580Z,10.58
2017-10-18T03:27:01.583Z,10.60
2017-10-18T03:28:01.546Z,10.60
2017-10-18T03:29:01.599Z,10.61
2017-10-18T03:30:01.543Z,10.63
2017-10-18T03:31:01.549Z,10.63
2017-10-18T03:32:01.587Z,10.63
2017-10-18T03:33:01.605Z,10.64
2017-10-18T03:34:01.581Z,10.64
2017-10-18T03:35:01.542Z,10.65
2017-10-18T03:36:01.544Z,10.67
2017-10-18T03:37:01.588Z,10.67
2017-10-18T03:38:01.643Z,10.68
2017-10-18T03:39:01.620Z,10.69
2017-10-18T03:40:01.607Z,10.71
2017-10-18T03:41:01.620Z,10.71
2017-10-18T03:42:01.521Z,10.71
2017-10-18T03:43:01.558Z,10.71
2017-10-18T03:44:01.521Z,10.71
2017-10-18T03:45:01.594Z,10.71
2017-10-18T03:46:01.661Z,10.71
2017-10-18T03:47:01.593Z,10.69
2017-10-18T03:48:01.666Z,10.68
2017-10-18T03:49:01.663Z,10.68
2017-10-18T03:50:01.596Z,10.67
2017-10-18T03:51:01.668Z,10.67
2017-10-18T03:52:01.629Z,10.65
2017-10-18T03:53:01.671Z,10.63
2017-10-18T03:54:01.601Z,10.61
2017-10-18T03:55:01.667Z,10.60
2017-10-18T03:56:01.669Z,10.60
2017-10-18T03:57:01.608Z,10.61
2017-10-18T03:58:01.673Z,10.60
2017-10-18T03:59:01.606Z,10.60
2017-10-18T04:00:01.672Z,10.60
2017-10-18T04:01:01.641Z,10.60
2017-10-18T04:02:01.609Z,10.60
2017-10-18T04:03:01.695Z,10.60
2017-10-18T04:04:01.673Z,10.61
2017-10-18T04:05:01.676Z,10.61
2017-10-18T04:06:01.556Z,10.63
2017-10-18T04:07:01.541Z,10.63
2017-10-18T04:08:01.620Z,10.65
2017-10-18T04:09:01.608Z,10.64
2017-10-18T04:10:01.543Z,10.64
2017-10-18T04:11:01.611Z,10.63
2017-10-18T04:12:01.615Z,10.64
2017-10-18T04:13:01.501Z,10.63
2017-10-18T04:14:01.582Z,10.63
2017-10-18T04:15:01.604Z,10.63
2017-10-18T04:16:01.680Z,10.61
2017-10-18T04:17:01.617Z,10.63
2017-10-18T04:18:01.617Z,10.63
2017-10-18T04:19:01.687Z,10.63
2017-10-18T04:20:01.660Z,10.61
2017-10-18T04:21:01.616Z,10.60
2017-10-18T04:22:01.590Z,10.61
2017-10-18T04:23:01.622Z,10.58
2017-10-18T04:24:01.621Z,10.60
2017-10-18T04:25:01.622Z,10.60
2017-10-18T04:26:01.678Z,10.58
2017-10-18T04:27:01.699Z,10.60
2017-10-18T04:28:01.596Z,10.60
2017-10-18T04:29:01.702Z,10.58
2017-10-18T04:30:01.689Z,10.58
2017-10-18T04:31:01.592Z,10.58
2017-10-18T04:32:01.599Z,10.60
2017-10-18T04:33:01.687Z,10.58
2017-10-18T04:34:01.624Z,10.58
2017-10-18T04:35:01.678Z,10.58
2017-10-18T04:36:01.626Z,10.60
2017-10-18T04:37:01.625Z,10.60
2017-10-18T04:38:01.700Z,10.61
2017-10-18T04:39:01.629Z,10.61
2017-10-18T04:40:01.696Z,10.63
2017-10-18T04:41:01.696Z,10.63
2017-10-18T04:42:01.697Z,10.64
2017-10-18T04:43:01.631Z,10.64
2017-10-18T04:44:01.700Z,10.64
2017-10-18T04:45:01.635Z,10.65
2017-10-18T04:46:01.620Z,10.65
2017-10-18T04:47:01.553Z,10.67
2017-10-18T04:48:01.646Z,10.65
2017-10-18T04:49:01.598Z,10.67
2017-10-18T04:50:01.603Z,10.67
2017-10-18T04:51:01.557Z,10.68
2017-10-18T04:52:01.606Z,10.68
2017-10-18T04:53:01.605Z,10.69
2017-10-18T04:54:01.556Z,10.67
2017-10-18T04:55:01.607Z,10.68
2017-10-18T04:56:01.689Z,10.68
2017-10-18T04:57:01.602Z,10.68
2017-10-18T04:58:01.640Z,10.67
2017-10-18T04:59:01.659Z,10.67
2017-10-18T05:00:01.697Z,10.68
2017-10-18T05:01:01.692Z,10.68
2017-10-18T05:02:01.697Z,10.68
2017-10-18T05:03:01.620Z,10.68
2017-10-18T05:04:01.725Z,10.68
2017-10-18T05:05:01.576Z,10.71
2017-10-18T05:06:01.710Z,10.71
2017-10-18T05:07:01.713Z,10.71
2017-10-18T05:08:01.618Z,10.72
2017-10-18T05:09:01.700Z,10.71
2017-10-18T05:10:01.625Z,10.71
2017-10-18T05:11:01.701Z,10.69
2017-10-18T05:12:01.638Z,10.68
2017-10-18T05:13:01.715Z,10.68
2017-10-18T05:14:01.625Z,10.67
2017-10-18T05:15:01.674Z,10.68
2017-10-18T05:16:01.720Z,10.68
2017-10-18T05:17:01.652Z,10.68
2017-10-18T05:18:01.748Z,10.68
2017-10-18T05:19:01.720Z,10.67
2017-10-18T05:20:01.720Z,10.65
2017-10-18T05:21:01.651Z,10.65
2017-10-18T05:22:01.722Z,10.65
2017-10-18T05:23:01.657Z,10.65
2017-10-18T05:24:01.723Z,10.65
2017-10-18T05:25:01.656Z,10.67
2017-10-18T05:26:01.725Z,10.67
2017-10-18T05:27:01.657Z,10.67
2017-10-18T05:28:01.614Z,10.67
2017-10-18T05:29:01.725Z,10.65
2017-10-18T05:30:01.663Z,10.67
2017-10-18T05:31:01.727Z,10.67
2017-10-18T05:32:01.660Z,10.68
2017-10-18T05:33:01.749Z,10.67
2017-10-18T05:34:01.730Z,10.68
2017-10-18T05:35:01.658Z,10.68
2017-10-18T05:36:01.668Z,10.68
2017-10-18T05:37:01.634Z,10.68
2017-10-18T05:38:01.731Z,10.69
2017-10-18T05:39:01.729Z,10.69
2017-10-18T05:40:01.630Z,10.69
2017-10-18T05:41:01.642Z,10.71
2017-10-18T05:42:01.685Z,10.71
2017-10-18T05:43:01.719Z,10.71
2017-10-18T05:44:01.635Z,10.69
2017-10-18T05:45:01.676Z,10.68
2017-10-18T05:46:01.707Z,10.67
2017-10-18T05:47:01.676Z,10.67
2017-10-18T05:48:01.730Z,10.65
2017-10-18T05:49:01.699Z,10.63
2017-10-18T05:50:01.730Z,10.64
2017-10-18T05:51:01.645Z,10.64
2017-10-18T05:52:01.750Z,10.65
2017-10-18T05:53:01.640Z,10.63
2017-10-18T05:54:01.642Z,10.64
2017-10-18T05:55:01.675Z,10.64
2017-10-18T05:56:01.733Z,10.64
2017-10-18T05:57:01.713Z,10.67
2017-10-18T05:58:01.692Z,10.67
2017-10-18T05:59:01.605Z,10.67
2017-10-18T06:00:01.710Z,10.68
2017-10-18T06:01:01.644Z,10.68
2017-10-18T06:02:01.607Z,10.69
2017-10-18T06:03:01.708Z,10.69
2017-10-18T06:04:01.610Z,10.69
2017-10-18T06:05:01.746Z,10.71
2017-10-18T06:06:01.641Z,10.69
2017-10-18T06:07:01.656Z,10.69
2017-10-18T06:08:01.695Z,10.68
2017-10-18T06:09:01.733Z,10.68
2017-10-18T06:10:01.676Z,10.67
2017-10-18T06:11:01.612Z,10.68
2017-10-18T06:12:01.615Z,10.68
2017-10-18T06:13:01.699Z,10.68
2017-10-18T06:14:01.636Z,10.67
2017-10-18T06:15:01.622Z,10.65
2017-10-18T06:16:01.758Z,10.63
2017-10-18T06:17:01.755Z,10.63
2017-10-18T06:18:01.685Z,10.63
2017-10-18T06:19:01.754Z,10.61
2017-10-18T06:20:01.683Z,10.64
2017-10-18T06:21:01.687Z,10.61
2017-10-18T06:22:01.758Z,10.61
2017-10-18T06:23:01.757Z,10.63
2017-10-18T06:24:01.688Z,10.63
2017-10-18T06:25:01.757Z,10.64
2017-10-18T06:26:01.692Z,10.64
2017-10-18T06:27:01.692Z,10.63
2017-10-18T06:28:01.761Z,10.64
2017-10-18T06:29:01.689Z,10.63
2017-10-18T06:30:01.763Z,10.63
2017-10-18T06:31:01.695Z,10.60
2017-10-18T06:32:01.765Z,10.58
2017-10-18T06:33:01.693Z,10.56
2017-10-18T06:34:01.766Z,10.54
2017-10-18T06:35:01.767Z,10.53
2017-10-18T06:36:01.667Z,10.49
2017-10-18T06:37:01.666Z,10.47
2017-10-18T06:38:01.698Z,10.43
2017-10-18T06:39:01.696Z,10.43
2017-10-18T06:40:01.698Z,10.43
2017-10-18T06:41:01.736Z,10.45
2017-10-18T06:42:01.719Z,10.45
2017-10-18T06:43:01.694Z,10.42
2017-10-18T06:44:01.648Z,10.39
2017-10-18T06:45:01.673Z,10.38
2017-10-18T06:46:01.770Z,10.38
2017-10-18T06:47:01.704Z,10.38
2017-10-18T06:48:01.772Z,10.42
2017-10-18T06:49:01.701Z,10.41
2017-10-18T06:50:01.773Z,10.41
2017-10-18T06:51:01.707Z,10.39
2017-10-18T06:52:01.775Z,10.41
2017-10-18T06:53:01.703Z,10.38
2017-10-18T06:54:01.776Z,10.38
2017-10-18T06:55:01.712Z,10.39
2017-10-18T06:56:01.777Z,10.36
2017-10-18T06:57:01.735Z,10.38
2017-10-18T06:58:01.752Z,10.39
2017-10-18T06:59:01.780Z,10.42
2017-10-18T07:00:01.720Z,10.43
2017-10-18T07:01:01.787Z,10.42
2017-10-18T07:02:01.714Z,10.43
2017-10-18T07:03:01.783Z,10.43
2017-10-18T07:04:01.715Z,10.46
2017-10-18T07:05:01.717Z,10.49
2017-10-18T07:06:01.682Z,10.49
2017-10-18T07:07:01.717Z,10.49
2017-10-18T07:08:01.696Z,10.49
2017-10-18T07:09:01.748Z,10.47
2017-10-18T07:10:01.717Z,10.47
2017-10-18T07:11:01.681Z,10.47
2017-10-18T07:12:01.768Z,10.47
2017-10-18T07:13:01.693Z,10.47
2017-10-18T07:14:01.766Z,10.49
2017-10-18T07:15:01.752Z,10.52
2017-10-18T07:16:01.791Z,10.53
2017-10-18T07:17:01.717Z,10.56
2017-10-18T07:18:01.727Z,10.56
2017-10-18T07:19:01.790Z,10.53
2017-10-18T07:20:01.719Z,10.53
2017-10-18T07:21:01.792Z,10.54
2017-10-18T07:22:01.721Z,10.53
2017-10-18T07:23:01.794Z,10.50
2017-10-18T07:24:01.793Z,10.49
2017-10-18T07:25:01.760Z,10.50
2017-10-18T07:26:01.784Z,10.56
2017-10-18T07:27:01.782Z,10.57
2017-10-18T07:28:01.782Z,10.58
2017-10-18T07:29:01.722Z,10.64
2017-10-18T07:30:01.655Z,10.65
2017-10-18T07:31:01.689Z,10.60
2017-10-18T07:32:01.705Z,10.61
2017-10-18T07:33:01.681Z,10.63
2017-10-18T07:34:01.749Z,10.67
2017-10-18T07:35:01.799Z,10.65
2017-10-18T07:36:01.802Z,10.69
2017-10-18T07:37:01.856Z,10.67
2017-10-18T07:38:01.730Z,10.68
2017-10-18T07:39:01.742Z,10.74
2017-10-18T07:40:01.806Z,10.77
2017-10-18T07:41:01.737Z,10.75
2017-10-18T07:42:01.806Z,10.79
2017-10-18T07:43:01.743Z,10.80
2017-10-18T07:44:01.808Z,10.77
2017-10-18T07:45:01.804Z,10.79
2017-10-18T07:46:01.735Z,10.84
2017-10-18T07:47:01.806Z,10.86
2017-10-18T07:48:01.744Z,10.87
2017-10-18T07:49:01.737Z,10.93
2017-10-18T07:50:01.810Z,10.91
2017-10-18T07:51:01.809Z,10.91
2017-10-18T07:52:01.740Z,10.97
2017-10-18T07:53:01.811Z,11.03
2017-10-18T07:54:01.736Z,11.06
2017-10-18T07:55:01.811Z,11.05
2017-10-18T07:56:01.772Z,11.05
2017-10-18T07:57:01.700Z,11.09
2017-10-18T07:58:01.754Z,11.11
2017-10-18T07:59:01.691Z,11.06
2017-10-18T08:00:01.707Z,11.03
2017-10-18T08:01:01.740Z,10.97
2017-10-18T08:02:01.772Z,10.91
2017-10-18T08:03:01.720Z,10.93
2017-10-18T08:04:01.741Z,11.00
2017-10-18T08:05:01.747Z,11.05
2017-10-18T08:06:01.819Z,11.10
2017-10-18T08:07:01.751Z,11.11
2017-10-18T08:08:01.820Z,11.09
2017-10-18T08:09:01.755Z,11.06
2017-10-18T08:10:01.822Z,11.11
2017-10-18T08:11:01.752Z,11.20
2017-10-18T08:12:01.849Z,11.27
2017-10-18T08:13:01.789Z,11.27
2017-10-18T08:14:01.755Z,11.27
2017-10-18T08:15:01.825Z,11.29
2017-10-18T08:16:01.758Z,11.32
2017-10-18T08:17:01.825Z,11.35
2017-10-18T08:18:01.762Z,11.32
2017-10-18T08:19:01.760Z,11.33
2017-10-18T08:20:01.764Z,11.38
2017-10-18T08:21:01.835Z,11.33
2017-10-18T08:22:01.757Z,11.35
2017-10-18T08:23:01.851Z,11.39
2017-10-18T08:24:01.831Z,11.36
2017-10-18T08:25:01.761Z,11.31
2017-10-18T08:26:01.829Z,11.31
2017-10-18T08:27:01.740Z,11.42
2017-10-18T08:28:01.717Z,11.43
2017-10-18T08:29:01.760Z,11.47
2017-10-18T08:30:01.734Z,11.50
2017-10-18T08:31:01.835Z,11.57
2017-10-18T08:32:01.779Z,11.51
2017-10-18T08:33:01.761Z,11.49
2017-10-18T08:34:01.735Z,11.54
2017-10-18T08:35:01.783Z,11.54
2017-10-18T08:36:01.769Z,11.53
2017-10-18T08:37:01.860Z,11.53
2017-10-18T08:38:01.771Z,11.58
2017-10-18T08:39:01.839Z,11.61
2017-10-18T08:40:01.774Z,11.61
2017-10-18T08:41:01.769Z,11.64
2017-10-18T08:42:01.737Z,11.72
2017-10-18T08:43:01.772Z,11.78
2017-10-18T08:44:01.844Z,11.72
2017-10-18T08:45:01.843Z,11.67
2017-10-18T08:46:01.774Z,11.61
2017-10-18T08:47:01.841Z,11.61
2017-10-18T08:48:01.842Z,11.61
2017-10-18T08:49:01.770Z,11.67
2017-10-18T08:50:01.844Z,11.71
2017-10-18T08:51:01.845Z,11.72
2017-10-18T08:52:01.845Z,11.78
2017-10-18T08:53:01.782Z,11.86
2017-10-18T08:54:01.776Z,11.94
2017-10-18T08:55:01.777Z,12.05
2017-10-18T08:56:01.847Z,12.12
2017-10-18T08:57:01.787Z,12.22
2017-10-18T08:58:01.851Z,12.32
2017-10-18T08:59:01.784Z,12.42
2017-10-18T09:00:01.850Z,12.40
2017-10-18T09:01:01.782Z,12.33
2017-10-18T09:02:01.861Z,12.26
2017-10-18T09:03:01.781Z,12.29
2017-10-18T09:04:01.853Z,12.40
2017-10-18T09:05:01.854Z,12.40
2017-10-18T09:06:01.780Z,12.42
2017-10-18T09:07:01.739Z,12.32
2017-10-18T09:08:01.713Z,12.29
2017-10-18T09:09:01.835Z,12.32
2017-10-18T09:10:01.727Z,12.36
2017-10-18T09:11:01.806Z,12.39
2017-10-18T09:12:01.746Z,12.42
2017-10-18T09:13:01.748Z,12.44
2017-10-18T09:14:01.789Z,12.50
2017-10-18T09:15:01.804Z,12.48
2017-10-18T09:16:01.821Z,12.47
2017-10-18T09:17:01.862Z,12.42
2017-10-18T09:18:01.862Z,12.47
2017-10-18T09:19:01.864Z,12.47
2017-10-18T09:20:01.874Z,12.50
2017-10-18T09:21:01.820Z,12.57
2017-10-18T09:22:01.865Z,12.60
2017-10-18T09:23:01.841Z,12.64
2017-10-18T09:24:01.790Z,12.62
2017-10-18T09:25:01.867Z,12.64
2017-10-18T09:26:01.796Z,12.66
2017-10-18T09:27:01.760Z,12.80
2017-10-18T09:28:01.847Z,12.96
2017-10-18T09:29:01.848Z,13.09
2017-10-18T09:30:01.776Z,12.98
2017-10-18T09:31:01.761Z,12.99
2017-10-18T09:32:01.741Z,13.13
2017-10-18T09:33:01.754Z,13.20
2017-10-18T09:34:01.802Z,13.21
2017-10-18T09:35:01.799Z,13.17
2017-10-18T09:36:01.824Z,13.18
2017-10-18T09:37:01.821Z,13.25
2017-10-18T09:38:01.762Z,13.32
2017-10-18T09:39:01.740Z,13.35
2017-10-18T09:40:01.807Z,13.42
2017-10-18T09:41:01.857Z,13.45
2017-10-18T09:42:01.837Z,13.46
2017-10-18T09:43:01.829Z,13.59
2017-10-18T09:44:01.827Z,13.62
2017-10-18T09:45:01.827Z,13.73
2017-10-18T09:46:01.814Z,13.79
2017-10-18T09:47:01.780Z,13.98
2017-10-18T09:48:01.748Z,14.10
2017-10-18T09:49:01.878Z,14.22
2017-10-18T09:50:01.877Z,14.32
2017-10-18T09:51:01.834Z,14.51
2017-10-18T09:52:01.853Z,14.64
2017-10-18T09:53:02.034Z,14.73
2017-10-18T09:54:01.765Z,14.84
2017-10-18T09:55:01.859Z,14.82
2017-10-18T09:56:01.771Z,14.83
2017-10-18T09:57:01.747Z,14.80
2017-10-18T09:58:01.815Z,14.84
2017-10-18T09:59:01.778Z,14.86
2017-10-18T10:00:01.796Z,14.84
2017-10-18T10:01:01.821Z,14.91
2017-10-18T10:02:01.819Z,14.96
2017-10-18T10:03:01.748Z,15.10
2017-10-18T10:04:01.761Z,15.28
2017-10-18T10:05:01.818Z,15.44
2017-10-18T10:06:01.855Z,15.59
2017-10-18T10:07:01.820Z,15.70
2017-10-18T10:08:01.776Z,15.82
2017-10-18T10:09:01.870Z,16.11
2017-10-18T10:10:01.879Z,16.05
2017-10-18T10:11:01.776Z,15.83
2017-10-18T10:12:01.860Z,15.64
2017-10-18T10:13:01.861Z,15.61
2017-10-18T10:14:01.800Z,15.65
2017-10-18T10:15:01.870Z,15.75
2017-10-18T10:16:01.827Z,15.95
2017-10-18T10:17:01.845Z,15.97
2017-10-18T10:18:01.898Z,15.93
2017-10-18T10:19:01.855Z,16.02
2017-10-18T10:20:01.830Z,16.03
2017-10-18T10:21:01.898Z,16.03
2017-10-18T10:22:01.835Z,16.03
2017-10-18T10:23:01.905Z,16.06
2017-10-18T10:24:01.936Z,16.09
2017-10-18T10:25:01.836Z,16.16
2017-10-18T10:26:01.905Z,16.17
2017-10-18T10:27:01.802Z,16.32
2017-10-18T10:28:01.805Z,16.57
2017-10-18T10:29:01.891Z,16.70
2017-10-18T10:30:01.809Z,16.83
2017-10-18T10:31:01.860Z,17.01
2017-10-18T10:32:01.809Z,16.94
2017-10-18T10:33:01.836Z,16.99
2017-10-18T10:34:01.900Z,17.01
2017-10-18T10:35:01.871Z,17.08
2017-10-18T10:36:01.880Z,17.08
2017-10-18T10:37:01.843Z,16.88
2017-10-18T10:38:01.911Z,16.84
2017-10-18T10:39:01.842Z,16.84
2017-10-18T10:40:01.840Z,16.80
2017-10-18T10:41:01.809Z,16.77
2017-10-18T10:42:01.913Z,16.79
2017-10-18T10:43:01.913Z,16.84
2017-10-18T10:44:01.872Z,17.10
2017-10-18T10:45:01.849Z,17.29
2017-10-18T10:46:01.865Z,17.26
2017-10-18T10:47:01.777Z,17.20
2017-10-18T10:48:01.773Z,17.13
2017-10-18T10:49:01.777Z,17.21
2017-10-18T10:50:01.879Z,17.18
2017-10-18T10:51:01.846Z,17.43
2017-10-18T10:52:01.848Z,17.53
2017-10-18T10:53:01.827Z,17.88
2017-10-18T10:54:01.863Z,17.69
2017-10-18T10:55:01.882Z,17.49
2017-10-18T10:56:01.906Z,17.20
2017-10-18T10:57:01.914Z,17.26
2017-10-18T10:58:01.913Z,17.65
2017-10-18T10:59:01.914Z,17.87
2017-10-18T11:00:01.925Z,18.05
2017-10-18T11:01:01.794Z,18.12
2017-10-18T11:02:01.915Z,18.28
2017-10-18T11:03:01.834Z,18.34
2017-10-18T11:04:01.926Z,18.51
2017-10-18T11:05:01.861Z,18.69
2017-10-18T11:06:01.916Z,18.80
2017-10-18T11:07:01.930Z,19.01
2017-10-18T11:08:01.952Z,19.24
2017-10-18T11:09:01.865Z,19.40
2017-10-18T11:10:01.929Z,19.33
2017-10-18T11:11:01.953Z,19.19
2017-10-18T11:12:01.861Z,19.13
2017-10-18T11:13:01.934Z,19.19
2017-10-18T11:14:01.866Z,19.19
2017-10-18T11:15:01.936Z,19.03
2017-10-18T11:16:01.870Z,18.87
2017-10-18T11:17:01.828Z,18.77
2017-10-18T11:18:01.868Z,18.87
2017-10-18T11:19:01.844Z,18.90
2017-10-18T11:20:01.934Z,18.95
2017-10-18T11:21:01.798Z,19.03
2017-10-18T11:22:01.806Z,19.06
2017-10-18T11:23:01.805Z,19.09
2017-10-18T11:24:01.802Z,19.02
2017-10-18T11:25:01.919Z,19.02
2017-10-18T11:26:01.922Z,18.86
2017-10-18T11:27:01.941Z,18.84
2017-10-18T11:28:01.876Z,18.99
2017-10-18T11:29:01.941Z,19.21
2017-10-18T11:30:01.873Z,19.43
2017-10-18T11:31:01.940Z,19.58
2017-10-18T11:32:01.876Z,19.76
2017-10-18T11:33:01.884Z,19.92
2017-10-18T11:34:01.950Z,20.02
2017-10-18T11:35:01.876Z,20.10
2017-10-18T11:36:01.831Z,20.16
2017-10-18T11:37:01.889Z,20.07
2017-10-18T11:38:01.790Z,19.65
2017-10-18T11:39:01.798Z,19.73
2017-10-18T11:40:01.899Z,19.85
2017-10-18T11:41:01.802Z,19.85
2017-10-18T11:42:01.802Z,19.92
2017-10-18T11:43:01.850Z,20.18
2017-10-18T11:44:01.843Z,20.20
2017-10-18T11:45:01.852Z,20.20
2017-10-18T11:46:01.894Z,20.27
2017-10-18T11:47:01.943Z,20.27
2017-10-18T11:48:01.855Z,20.21
2017-10-18T11:49:01.884Z,20.07
2017-10-18T11:50:01.878Z,19.88
2017-10-18T11:51:01.884Z,19.79
2017-10-18T11:52:01.859Z,19.65
2017-10-18T11:53:01.955Z,19.70
2017-10-18T11:54:01.866Z,19.81
2017-10-18T11:55:01.952Z,20.01
2017-10-18T11:56:01.900Z,20.13
2017-10-18T11:57:01.957Z,20.30
2017-10-18T11:58:01.891Z,20.58
2017-10-18T11:59:01.906Z,20.87
2017-10-18T12:00:01.964Z,21.20
2017-10-18T12:01:01.890Z,21.45
2017-10-18T12:02:01.961Z,21.40
2017-10-18T12:03:01.963Z,21.35
2017-10-18T12:04:01.896Z,21.09
2017-10-18T12:05:01.963Z,21.06
2017-10-18T12:06:01.890Z,20.97
2017-10-18T12:07:01.941Z,21.01
2017-10-18T12:08:01.870Z,20.93
2017-10-18T12:09:01.832Z,20.87
2017-10-18T12:10:01.820Z,20.50
2017-10-18T12:11:01.818Z,20.34
2017-10-18T12:12:01.910Z,20.25
2017-10-18T12:13:01.875Z,20.31
2017-10-18T12:14:01.947Z,20.28
2017-10-18T12:15:01.947Z,20.18
2017-10-18T12:16:01.875Z,20.10
2017-10-18T12:17:01.856Z,20.05
2017-10-18T12:18:01.856Z,19.92
2017-10-18T12:19:01.968Z,19.98
2017-10-18T12:20:01.957Z,19.80
2017-10-18T12:21:01.957Z,19.80
2017-10-18T12:22:01.971Z,20.01
2017-10-18T12:23:01.875Z,20.30
2017-10-18T12:24:01.859Z,20.23
2017-10-18T12:25:01.974Z,20.07
2017-10-18T12:26:01.902Z,19.99
2017-10-18T12:27:01.902Z,20.14
2017-10-18T12:28:01.978Z,20.17
2017-10-18T12:29:01.902Z,20.13
2017-10-18T12:30:01.979Z,20.21
2017-10-18T12:31:01.917Z,20.28
2017-10-18T12:32:01.979Z,20.38
2017-10-18T12:33:01.979Z,20.49
2017-10-18T12:34:01.909Z,20.42
2017-10-18T12:35:01.981Z,20.47
2017-10-18T12:36:01.905Z,20.61
2017-10-18T12:37:01.988Z,20.86
2017-10-18T12:38:01.909Z,21.20
2017-10-18T12:39:01.986Z,21.38
2017-10-18T12:40:01.915Z,21.54
2017-10-18T12:41:01.986Z,21.58
2017-10-18T12:42:01.913Z,21.69
2017-10-18T12:43:01.920Z,21.61
2017-10-18T12:44:01.990Z,21.32
2017-10-18T12:45:01.988Z,21.06
2017-10-18T12:46:01.918Z,21.04
2017-10-18T12:47:01.990Z,20.80
2017-10-18T12:48:01.923Z,20.68
2017-10-18T12:49:01.989Z,20.75
2017-10-18T12:50:01.920Z,20.90
2017-10-18T12:51:01.992Z,21.06
2017-10-18T12:52:01.919Z,21.17